Messwerte Seward

Temperatur

Temperatur
°C
1624323600 17.00 17.00 16
1624327200 18.00 18.00 15
1624330800 19.00 19.00 13
1624334400 20.00 20.00 13
1624338000 21.00 21.00 12
1624341600 22.00 22.00 12
1624345200 23.00 23.00 11
1624348800 0.00 0.00
1624352400 1.00 1.00 9
1624356000 2.00 2.00
1624359600 3.00 3.00 10
1624363200 4.00 4.00 10
1624366800 5.00 5.00 10
1624370400 6.00 6.00
1624374000 7.00 7.00 11
1624377600 8.00 8.00 12
1624381200 9.00 9.00 12
1624384800 10.00 10.00 12
1624388400 11.00 11.00 12
1624392000 12.00 12.00 12
1624395600 13.00 13.00 13
1624399200 14.00 14.00 13
1624402800 15.00 15.00 14
1624406400 16.00 16.00 14

Aktuellste Messwerte

Wettercharakter
Wetter: bedeckt
Temperatur
13 °C
Feuchtigkeit
70 %
Wind
20 km/hWindrichtung: Süd
Luftdruck
1014 hPa
Messzeit: 22. Juni 2021, 17.00Datenquelle: METAR

Weitere Messstationen in der Nähe

Messstation Temperatur Entfernung
Soldotna 17 °C 96 km
Kenai 17 °C 111 km
Anchorage 19 °C 118 km
Anchorage 17 °C 121 km
Homer 16 °C 127 km
Anchorage – Elmendor 18 °C 127 km
Ft. Richardson 18 °C 128 km

Wind

Windrichtung Böen Mittelwind
° km/h km/h
1624323600 17.00 16.00 - 17.00 160° 20
1624327200 18.00 17.00 - 18.00 190° 20
1624330800 19.00 18.00 - 19.00 170° 30
1624334400 20.00 19.00 - 20.00 180° 20
1624338000 21.00 20.00 - 21.00 180° 20
1624341600 22.00 21.00 - 22.00 200° 15
1624345200 23.00 22.00 - 23.00 60° 5
1624348800 0.00 23.00 - 0.00
1624352400 1.00 0.00 - 1.00 0
1624356000 2.00 1.00 - 2.00
1624359600 3.00 2.00 - 3.00 0
1624363200 4.00 3.00 - 4.00 0
1624366800 5.00 4.00 - 5.00 50° 5
1624370400 6.00 5.00 - 6.00
1624374000 7.00 6.00 - 7.00 0
1624377600 8.00 7.00 - 8.00 0
1624381200 9.00 8.00 - 9.00 0
1624384800 10.00 9.00 - 10.00 190° 10
1624388400 11.00 10.00 - 11.00 160° 15
1624392000 12.00 11.00 - 12.00 160° 15
1624395600 13.00 12.00 - 13.00 160° 20
1624399200 14.00 13.00 - 14.00 160° 20
1624402800 15.00 14.00 - 15.00 170° 20
1624406400 16.00 15.00 - 16.00 160° 20

Ihre Wetterstation

Fehlt Ihre Wetterstation auf unserem Portal?

Schreiben Sie an network@meteonews.ch

Klima

Wann ist es am wärmsten? Wann regnet es am wenigsten? Unsere Klimadaten geben Auskunft.